createdAt,value
2023-03-26T00:00:00.465Z,97094.00
2023-03-26T00:05:34.722Z,97095.00
2023-03-26T00:11:00.017Z,97107.00
2023-03-26T00:16:41.361Z,97115.00
2023-03-26T00:22:27.736Z,97101.00
2023-03-26T00:28:05.979Z,97104.00
2023-03-26T00:33:39.052Z,97106.00
2023-03-26T00:39:14.155Z,97095.00
2023-03-26T00:44:38.467Z,97098.00
2023-03-26T00:50:00.181Z,97102.00
2023-03-26T00:55:23.529Z,97108.00
2023-03-26T01:00:59.163Z,97094.00
2023-03-26T01:06:43.803Z,97096.00
2023-03-26T01:12:10.315Z,97092.00
2023-03-26T01:17:53.003Z,97082.00
2023-03-26T01:23:38.974Z,97091.00
2023-03-26T01:29:38.186Z,97090.00
2023-03-26T01:35:31.669Z,97087.00
2023-03-26T01:41:27.450Z,97096.00
2023-03-26T01:47:11.231Z,97098.00
2023-03-26T01:52:47.711Z,97102.00
2023-03-26T01:58:30.333Z,97113.00
2023-03-26T02:04:23.281Z,97110.00
2023-03-26T02:09:55.748Z,97117.00
2023-03-26T02:15:17.395Z,97099.00
2023-03-26T02:20:38.730Z,97099.00
2023-03-26T02:26:27.013Z,97102.00
2023-03-26T02:32:25.831Z,97090.00
2023-03-26T02:38:11.280Z,97103.00
2023-03-26T02:43:58.609Z,97086.00
2023-03-26T02:49:50.710Z,97096.00
2023-03-26T02:55:19.122Z,97088.00
2023-03-26T03:00:42.083Z,97081.00
2023-03-26T03:06:59.191Z,97082.00
2023-03-26T03:12:32.517Z,97071.00
2023-03-26T03:18:09.130Z,97074.00
2023-03-26T03:24:00.134Z,97060.00
2023-03-26T03:29:38.344Z,97057.00
2023-03-26T03:35:33.727Z,97067.00
2023-03-26T03:41:09.461Z,97064.00
2023-03-26T03:47:17.024Z,97074.00
2023-03-26T03:53:03.440Z,97066.00
2023-03-26T03:58:46.733Z,97055.00
2023-03-26T04:04:34.172Z,97064.00
2023-03-26T04:10:09.086Z,97059.00
2023-03-26T04:16:32.500Z,97056.00
2023-03-26T04:22:10.559Z,97056.00
2023-03-26T04:28:08.677Z,97059.00
2023-03-26T04:34:09.650Z,97065.00
2023-03-26T04:39:41.294Z,97058.00
2023-03-26T04:45:22.819Z,97045.00
2023-03-26T04:51:08.630Z,97050.00
2023-03-26T04:57:01.479Z,97044.00
2023-03-26T05:03:06.223Z,97058.00
2023-03-26T05:08:34.906Z,97059.00
2023-03-26T05:14:14.868Z,97053.00
2023-03-26T05:19:39.132Z,97058.00
2023-03-26T05:25:00.807Z,97061.00
2023-03-26T05:30:23.130Z,97060.00
2023-03-26T05:36:25.585Z,97051.00
2023-03-26T05:42:28.338Z,97058.00
2023-03-26T05:48:11.330Z,97046.00
2023-03-26T05:53:48.996Z,97047.00
2023-03-26T05:59:20.456Z,97040.00
2023-03-26T06:05:09.588Z,97033.00
2023-03-26T06:11:24.893Z,97040.00
2023-03-26T06:17:04.040Z,97032.00
2023-03-26T06:23:07.326Z,97026.00
2023-03-26T06:29:15.017Z,97020.00
2023-03-26T06:35:00.707Z,97014.00
2023-03-26T06:40:23.239Z,97013.00
2023-03-26T06:52:18.449Z,97020.00
2023-03-26T06:58:20.467Z,97016.00
2023-03-26T07:04:24.352Z,97016.00
2023-03-26T07:10:34.063Z,97015.00
2023-03-26T07:16:39.600Z,97014.00
2023-03-26T07:22:43.978Z,97007.00
2023-03-26T07:29:04.955Z,97013.00
2023-03-26T07:35:29.036Z,97001.00
2023-03-26T07:42:04.529Z,96997.00
2023-03-26T07:48:04.491Z,96989.00
2023-03-26T07:53:50.261Z,96991.00
2023-03-26T07:59:45.472Z,96976.00
2023-03-26T08:05:42.090Z,96970.00
2023-03-26T08:11:54.504Z,96970.00
2023-03-26T08:17:47.858Z,96971.00
2023-03-26T08:24:07.601Z,96963.00
2023-03-26T08:29:58.221Z,96956.00
2023-03-26T08:35:19.857Z,96951.00
2023-03-26T08:47:33.010Z,96942.00
2023-03-26T08:53:22.198Z,96939.00
2023-03-26T08:59:29.877Z,96931.00
2023-03-26T09:05:32.316Z,96930.00
2023-03-26T09:11:23.757Z,96926.00
2023-03-26T09:17:10.092Z,96912.00
2023-03-26T09:23:14.977Z,96924.00
2023-03-26T09:29:18.529Z,96919.00
2023-03-26T09:35:15.544Z,96911.00
2023-03-26T09:40:42.575Z,96909.00
2023-03-26T09:46:27.079Z,96895.00
2023-03-26T09:52:29.535Z,96891.00
2023-03-26T09:58:30.082Z,96871.00
2023-03-26T10:04:18.898Z,96858.00
2023-03-26T10:10:05.129Z,96856.00
2023-03-26T10:16:13.709Z,96840.00
2023-03-26T10:22:09.663Z,96839.00
2023-03-26T10:27:56.844Z,96822.00
2023-03-26T10:34:04.634Z,96834.00
2023-03-26T10:39:47.425Z,96825.00
2023-03-26T10:45:57.866Z,96818.00
2023-03-26T10:51:49.179Z,96815.00
2023-03-26T10:57:34.660Z,96808.00
2023-03-26T11:03:50.100Z,96806.00
2023-03-26T11:09:21.053Z,96799.00
2023-03-26T11:14:51.589Z,96811.00
2023-03-26T11:20:22.945Z,96796.00
2023-03-26T11:25:47.013Z,96801.00
2023-03-26T11:31:47.304Z,96792.00
2023-03-26T11:37:36.247Z,96795.00
2023-03-26T11:43:29.298Z,96794.00
2023-03-26T11:49:11.187Z,96799.00
2023-03-26T11:54:43.469Z,96792.00
2023-03-26T12:00:17.810Z,96799.00
2023-03-26T12:06:02.183Z,96800.00
2023-03-26T12:11:46.436Z,96790.00
2023-03-26T12:17:50.029Z,96779.00
2023-03-26T12:23:57.752Z,96780.00
2023-03-26T12:29:27.757Z,96778.00
2023-03-26T12:34:56.198Z,96779.00
2023-03-26T12:40:32.696Z,96772.00
2023-03-26T12:47:56.060Z,96791.00
2023-03-26T12:52:29.794Z,96794.00
2023-03-26T12:58:13.980Z,96800.00
2023-03-26T13:04:20.767Z,96804.00
2023-03-26T13:10:46.185Z,96798.00
2023-03-26T13:16:34.670Z,96802.00
2023-03-26T13:22:25.783Z,96804.00
2023-03-26T13:28:24.442Z,96804.00
2023-03-26T13:34:14.543Z,96787.00
2023-03-26T13:40:17.262Z,96777.00
2023-03-26T13:45:41.362Z,96783.00
2023-03-26T13:51:29.479Z,96782.00
2023-03-26T13:57:18.218Z,96787.00
2023-03-26T14:03:19.223Z,96779.00
2023-03-26T14:09:10.424Z,96771.00
2023-03-26T14:14:58.868Z,96763.00
2023-03-26T14:20:32.791Z,96755.00
2023-03-26T14:26:28.488Z,96750.00
2023-03-26T14:32:30.010Z,96747.00
2023-03-26T14:38:45.358Z,96735.00
2023-03-26T14:44:47.678Z,96721.00
2023-03-26T14:50:20.589Z,96720.00
2023-03-26T14:56:32.753Z,96718.00
2023-03-26T15:02:34.349Z,96708.00
2023-03-26T15:08:37.661Z,96716.00
2023-03-26T15:14:29.313Z,96696.00
2023-03-26T15:20:13.826Z,96693.00
2023-03-26T15:26:27.323Z,96690.00
2023-03-26T15:32:35.052Z,96684.00
2023-03-26T15:38:22.821Z,96687.00
2023-03-26T15:44:29.291Z,96688.00
2023-03-26T15:50:02.250Z,96690.00
2023-03-26T15:55:34.297Z,96685.00
2023-03-26T16:01:19.102Z,96682.00
2023-03-26T16:06:59.890Z,96666.00
2023-03-26T16:12:32.740Z,96672.00
2023-03-26T16:18:28.047Z,96668.00
2023-03-26T16:24:06.356Z,96658.00
2023-03-26T16:29:30.636Z,96658.00
2023-03-26T16:35:00.449Z,96658.00
2023-03-26T16:40:32.638Z,96661.00
2023-03-26T16:46:51.203Z,96651.00
2023-03-26T16:52:34.624Z,96652.00
2023-03-26T16:58:53.720Z,96660.00
2023-03-26T17:10:32.015Z,96658.00
2023-03-26T17:16:31.430Z,96657.00
2023-03-26T17:22:27.458Z,96666.00
2023-03-26T17:28:36.982Z,96660.00
2023-03-26T17:34:39.304Z,96672.00
2023-03-26T17:40:12.246Z,96674.00
2023-03-26T17:45:37.096Z,96672.00
2023-03-26T17:51:29.414Z,96665.00
2023-03-26T17:57:15.772Z,96668.00
2023-03-26T18:08:47.123Z,96667.00
2023-03-26T18:14:37.617Z,96659.00
2023-03-26T18:20:10.050Z,96666.00
2023-03-26T18:25:34.185Z,96665.00
2023-03-26T18:31:29.933Z,96661.00
2023-03-26T18:37:33.216Z,96663.00
2023-03-26T18:43:12.358Z,96661.00
2023-03-26T18:49:00.446Z,96656.00
2023-03-26T18:54:36.074Z,96645.00
2023-03-26T19:00:20.028Z,96654.00
2023-03-26T19:05:55.832Z,96648.00
2023-03-26T19:11:27.603Z,96637.00
2023-03-26T19:17:11.528Z,96633.00
2023-03-26T19:22:59.357Z,96621.00
2023-03-26T19:28:43.062Z,96629.00
2023-03-26T19:34:22.584Z,96622.00
2023-03-26T19:39:49.263Z,96627.00
2023-03-26T19:45:17.748Z,96620.00
2023-03-26T19:50:43.717Z,96605.00
2023-03-26T19:56:31.508Z,96615.00
2023-03-26T20:02:10.318Z,96594.00
2023-03-26T20:07:41.523Z,96590.00
2023-03-26T20:13:25.672Z,96578.00
2023-03-26T20:19:00.253Z,96580.00
2023-03-26T20:24:24.826Z,96569.00
2023-03-26T20:29:46.642Z,96564.00
2023-03-26T20:35:36.225Z,96569.00
2023-03-26T20:41:19.577Z,96572.00
2023-03-26T20:47:09.343Z,96573.00
2023-03-26T20:52:41.095Z,96567.00
2023-03-26T20:58:13.077Z,96566.00
2023-03-26T21:03:57.162Z,96570.00
2023-03-26T21:09:25.337Z,96571.00
2023-03-26T21:14:47.122Z,96575.00
2023-03-26T21:20:13.656Z,96567.00
2023-03-26T21:25:56.267Z,96582.00
2023-03-26T21:31:25.009Z,96589.00
2023-03-26T21:37:05.094Z,96590.00
2023-03-26T21:43:00.251Z,96595.00
2023-03-26T21:48:42.688Z,96608.00
2023-03-26T21:54:28.944Z,96608.00
2023-03-26T22:00:15.366Z,96594.00
2023-03-26T22:06:12.784Z,96582.00
2023-03-26T22:12:08.265Z,96603.00
2023-03-26T22:18:01.459Z,96603.00
2023-03-26T22:24:06.671Z,96619.00
2023-03-26T22:29:46.731Z,96616.00
2023-03-26T22:35:11.532Z,96621.00
2023-03-26T22:40:33.042Z,96628.00
2023-03-26T22:46:07.806Z,96630.00
2023-03-26T22:52:08.862Z,96626.00
2023-03-26T23:03:38.963Z,96641.00
2023-03-26T23:09:03.773Z,96647.00
2023-03-26T23:14:25.242Z,96653.00
2023-03-26T23:19:46.866Z,96669.00
2023-03-26T23:25:10.358Z,96662.00
2023-03-26T23:30:32.143Z,96679.00
2023-03-26T23:36:27.888Z,96678.00
2023-03-26T23:42:15.637Z,96688.00
2023-03-26T23:47:56.811Z,96684.00
2023-03-26T23:53:37.566Z,96699.00
2023-03-26T23:59:06.487Z,96694.00
